Time;durP1;ratioP1;P1;durP2;ratioP2;P2;SDS_P1;SDS_P2;PMS_P1;PMS_P2;Temp;Humidity;BMP_temperature;BMP_pressure;BME280_temperature;BME280_humidity;BME280_pressure;Samples;Min_cycle;Max_cycle;Signal;HPM_P1;HPM_P2
2022/08/14 00:01:04;;;;;;;5.68;4.60;;;20.80;99.90;;;;;;5034253;28;20110;-82
2022/08/14 00:03:49;;;;;;;8.93;4.82;;;20.80;99.90;;;;;;5033164;28;20484;-81
2022/08/14 00:06:33;;;;;;;6.82;4.93;;;18.60;99.90;;;;;;5033960;28;20164;-81
2022/08/14 00:09:17;;;;;;;6.90;5.60;;;20.70;99.90;;;;;;5033679;28;20047;-82
2022/08/14 00:12:02;;;;;;;6.38;5.13;;;20.60;99.90;;;;;;5034021;28;20083;-82
2022/08/14 00:14:47;;;;;;;10.50;5.97;;;20.60;99.90;;;;;;5033935;28;20119;-81
2022/08/14 00:17:31;;;;;;;7.18;5.40;;;20.50;99.90;;;;;;5033512;28;20590;-82
2022/08/14 00:20:17;;;;;;;5.38;4.75;;;20.50;99.90;;;;;;5033373;28;20068;-82
2022/08/14 00:23:02;;;;;;;6.68;4.90;;;20.30;99.90;;;;;;5033789;28;20099;-81
2022/08/14 00:25:50;;;;;;;8.25;5.25;;;20.30;99.90;;;;;;5033744;28;20396;-81
2022/08/14 00:28:35;;;;;;;6.13;5.10;;;20.30;99.90;;;;;;5033395;28;20040;-82
2022/08/14 00:31:20;;;;;;;7.00;5.57;;;20.20;99.90;;;;;;5033064;28;20099;-81
2022/08/14 00:34:05;;;;;;;7.88;5.82;;;20.10;99.90;;;;;;5032744;28;20044;-82
2022/08/14 00:36:49;;;;;;;9.30;5.88;;;19.90;99.90;;;;;;5032442;28;20044;-81
2022/08/14 00:39:33;;;;;;;8.38;5.32;;;20.10;99.90;;;;;;5033025;28;20051;-81
2022/08/14 00:42:21;;;;;;;7.68;5.82;;;19.90;99.90;;;;;;5033156;28;20168;-81
2022/08/14 00:45:09;;;;;;;7.13;6.25;;;19.90;99.90;;;;;;5033468;28;20036;-81
2022/08/14 00:47:54;;;;;;;6.95;6.25;;;;;;;;;;5033360;28;20572;-81
2022/08/14 00:50:39;;;;;;;7.65;6.55;;;19.80;99.90;;;;;;5033052;28;20116;-81
2022/08/14 00:53:24;;;;;;;7.57;6.30;;;19.80;99.90;;;;;;5031808;28;20140;-81
2022/08/14 00:56:09;;;;;;;8.10;5.60;;;19.70;99.90;;;;;;5033165;28;20120;-81
2022/08/14 00:58:58;;;;;;;10.02;5.90;;;19.70;99.90;;;;;;5033048;28;20068;-81
2022/08/14 01:01:43;;;;;;;8.23;6.30;;;19.60;99.90;;;;;;5033129;28;20175;-81
2022/08/14 01:04:32;;;;;;;9.73;5.93;;;19.60;99.90;;;;;;5032689;28;20036;-81
2022/08/14 01:07:19;;;;;;;8.43;6.50;;;19.60;99.90;;;;;;5032957;28;20112;-81
2022/08/14 01:10:04;;;;;;;8.52;6.38;;;19.60;99.90;;;;;;5033002;28;20124;-81
2022/08/14 01:12:48;;;;;;;6.97;6.03;;;19.50;99.90;;;;;;5032767;28;20117;-81
2022/08/14 01:15:32;;;;;;;10.65;6.80;;;19.50;99.90;;;;;;5032569;28;20048;-81
2022/08/14 01:21:35;;;;;;;9.48;7.20;;;19.50;99.90;;;;;;5032474;28;20084;-81
2022/08/14 01:24:23;;;;;;;8.15;6.93;;;19.60;99.90;;;;;;5032648;28;20032;-81
2022/08/14 01:27:17;;;;;;;8.75;6.97;;;19.60;99.90;;;;;;5032703;28;20117;-81
2022/08/14 01:30:02;;;;;;;10.65;6.75;;;19.60;99.90;;;;;;5031732;28;20044;-81
2022/08/14 01:32:46;;;;;;;8.40;7.07;;;19.50;99.90;;;;;;5032965;28;20068;-81
2022/08/14 01:35:31;;;;;;;10.93;7.75;;;19.60;99.90;;;;;;5032268;28;20040;-81
2022/08/14 01:38:16;;;;;;;11.02;7.30;;;19.70;99.90;;;;;;5031448;28;20048;-81
2022/08/14 01:41:06;;;;;;;8.07;7.28;;;19.60;99.90;;;;;;5032608;28;20086;-81
2022/08/14 01:43:54;;;;;;;10.15;7.45;;;19.60;99.90;;;;;;5031504;28;20516;-81
2022/08/14 01:46:40;;;;;;;10.60;7.32;;;19.60;99.90;;;;;;5031146;28;20520;-82
2022/08/14 01:49:25;;;;;;;9.30;7.50;;;19.60;99.90;;;;;;5035595;28;20045;-81
2022/08/14 01:52:10;;;;;;;10.32;7.43;;;19.60;99.90;;;;;;5036609;28;20099;-81
2022/08/14 01:54:54;;;;;;;7.80;7.10;;;19.50;99.90;;;;;;5035806;28;20049;-82
2022/08/14 01:57:43;;;;;;;11.90;7.47;;;19.50;99.90;;;;;;5036105;28;20095;-82
2022/08/14 02:00:28;;;;;;;8.65;7.18;;;19.50;99.90;;;;;;5036056;28;20059;-81
2022/08/14 02:03:12;;;;;;;9.68;7.65;;;19.40;99.90;;;;;;5036444;28;20040;-82
2022/08/14 02:05:58;;;;;;;13.85;8.30;;;19.40;99.90;;;;;;5036331;28;20087;-82
2022/08/14 02:08:43;;;;;;;9.38;8.10;;;19.30;99.90;;;;;;5034999;28;20397;-82
2022/08/14 02:11:27;;;;;;;8.90;7.95;;;;;;;;;;5035898;28;20068;-82
2022/08/14 02:14:13;;;;;;;9.20;8.18;;;19.20;99.90;;;;;;5036249;28;20036;-82
2022/08/14 02:16:57;;;;;;;10.05;8.32;;;19.30;99.90;;;;;;5036155;28;20076;-82
2022/08/14 02:19:41;;;;;;;11.18;8.00;;;19.30;99.90;;;;;;5035622;28;20128;-82
2022/08/14 02:22:26;;;;;;;9.38;8.40;;;;;;;;;;5036177;28;20060;-82
2022/08/14 02:25:10;;;;;;;11.18;8.30;;;19.20;99.90;;;;;;5036069;28;20103;-81
2022/08/14 02:27:55;;;;;;;9.20;8.18;;;19.20;99.90;;;;;;5034841;28;20120;-82
2022/08/14 02:30:39;;;;;;;13.13;8.60;;;19.20;99.90;;;;;;5035587;28;20044;-82
2022/08/14 02:33:24;;;;;;;11.25;8.68;;;19.10;99.90;;;;;;5035855;28;20417;-82
2022/08/14 02:36:09;;;;;;;12.13;8.93;;;19.10;99.90;;;;;;5035835;28;20652;-82
2022/08/14 02:38:54;;;;;;;11.10;8.52;;;18.90;99.90;;;;;;5034888;28;20044;-82
2022/08/14 02:41:38;;;;;;;10.20;8.30;;;19.10;99.90;;;;;;5034268;28;20036;-82
2022/08/14 02:44:24;;;;;;;13.43;9.00;;;19.10;99.90;;;;;;5034693;28;20124;-82
2022/08/14 02:47:08;;;;;;;10.00;7.75;;;19.00;99.90;;;;;;5034603;28;20087;-82
2022/08/14 02:49:53;;;;;;;10.02;9.00;;;19.00;99.90;;;;;;5035172;28;20138;-82
2022/08/14 02:52:37;;;;;;;11.38;9.50;;;19.00;99.90;;;;;;5035246;28;20559;-82
2022/08/14 02:55:21;;;;;;;10.88;8.82;;;19.00;99.90;;;;;;5035409;28;20076;-82
2022/08/14 02:58:06;;;;;;;11.60;9.45;;;18.90;99.90;;;;;;5035278;28;20117;-81
2022/08/14 03:00:50;;;;;;;11.07;9.10;;;18.90;99.90;;;;;;5033621;28;20040;-82
2022/08/14 03:03:35;;;;;;;12.52;8.60;;;18.90;99.90;;;;;;5034995;28;20121;-82
2022/08/14 03:06:22;;;;;;;13.23;8.75;;;18.80;99.90;;;;;;5035248;28;20403;-82
2022/08/14 03:09:06;;;;;;;12.18;9.38;;;18.90;99.90;;;;;;5034263;28;20044;-82
2022/08/14 03:11:51;;;;;;;11.48;9.77;;;18.80;99.90;;;;;;5033770;28;20067;-82
2022/08/14 03:14:38;;;;;;;11.73;9.05;;;18.80;99.90;;;;;;5034852;28;20044;-81
2022/08/14 03:17:23;;;;;;;10.55;9.27;;;18.80;99.90;;;;;;5035095;28;20492;-81
2022/08/14 03:20:09;;;;;;;13.48;9.63;;;18.80;99.90;;;;;;5034863;28;20128;-82
2022/08/14 03:22:59;;;;;;;13.48;10.23;;;18.80;99.90;;;;;;5034682;28;20121;-82
2022/08/14 03:25:45;;;;;;;14.70;9.60;;;18.80;99.90;;;;;;5034472;28;20084;-82
2022/08/14 03:28:29;;;;;;;10.50;9.50;;;18.80;99.90;;;;;;5020078;28;20179;-82
2022/08/14 03:31:15;;;;;;;11.35;9.70;;;19.00;99.90;;;;;;5034786;28;20061;-82
2022/08/14 03:33:59;;;;;;;12.50;9.88;;;18.80;99.90;;;;;;5033416;28;20124;-82
2022/08/14 03:36:44;;;;;;;13.63;10.68;;;18.80;99.90;;;;;;5033338;28;20496;-81
2022/08/14 03:39:28;;;;;;;11.00;9.90;;;18.80;99.90;;;;;;5034620;28;20060;-81
2022/08/14 03:42:12;;;;;;;15.32;9.70;;;18.80;99.90;;;;;;5034590;28;20045;-81
2022/08/14 03:44:57;;;;;;;10.77;9.43;;;18.80;99.90;;;;;;5034170;28;20044;-81
2022/08/14 03:47:42;;;;;;;12.75;9.32;;;18.80;99.90;;;;;;5033024;28;20172;-81
2022/08/14 03:50:27;;;;;;;12.63;9.85;;;18.80;99.90;;;;;;5034493;28;20076;-81
2022/08/14 03:53:12;;;;;;;14.10;10.98;;;18.70;99.90;;;;;;5033400;28;20041;-82
2022/08/14 03:55:57;;;;;;;13.63;10.88;;;18.70;99.90;;;;;;5033007;28;20096;-82
2022/08/14 03:58:48;;;;;;;14.18;10.27;;;18.70;99.90;;;;;;5033987;28;20099;-82
2022/08/14 04:01:34;;;;;;;13.20;10.32;;;18.80;99.90;;;;;;5034172;28;20495;-81
2022/08/14 04:04:18;;;;;;;13.98;10.25;;;18.70;99.90;;;;;;5034204;28;20056;-81
2022/08/14 04:07:02;;;;;;;12.75;11.32;;;18.70;99.90;;;;;;5033792;28;20036;-81
2022/08/14 04:09:46;;;;;;;15.93;11.60;;;18.70;99.90;;;;;;5033630;28;20044;-81
2022/08/14 04:12:30;;;;;;;13.57;11.38;;;18.70;99.90;;;;;;5033655;28;20045;-82
2022/08/14 04:15:18;;;;;;;13.13;11.70;;;18.70;99.90;;;;;;5034022;28;20071;-81
2022/08/14 04:18:07;;;;;;;13.23;11.85;;;18.70;99.90;;;;;;5033538;28;20043;-82
2022/08/14 04:20:51;;;;;;;14.73;11.35;;;18.60;99.90;;;;;;5033422;28;20115;-82
2022/08/14 04:23:35;;;;;;;13.90;11.35;;;18.70;99.90;;;;;;5033966;28;20052;-82
2022/08/14 04:26:21;;;;;;;13.32;11.95;;;18.70;99.90;;;;;;5033834;28;20551;-82
2022/08/14 04:29:06;;;;;;;12.75;11.43;;;18.60;99.90;;;;;;5032341;28;20048;-82
2022/08/14 04:31:50;;;;;;;13.60;12.13;;;18.60;99.90;;;;;;5032031;28;20095;-82
2022/08/14 04:34:38;;;;;;;11.93;10.73;;;18.60;99.90;;;;;;5033795;28;20041;-82
2022/08/14 04:43:40;;;;;;;12.88;11.55;;;18.60;99.90;;;;;;5002235;28;20064;-82
2022/08/14 04:46:27;;;;;;;13.02;11.70;;;18.60;99.90;;;;;;5033427;28;20039;-82
2022/08/14 04:49:12;;;;;;;12.95;11.02;;;18.60;99.90;;;;;;5032909;28;20160;-82
2022/08/14 04:51:59;;;;;;;14.18;12.32;;;18.60;99.90;;;;;;5032879;28;20040;-82
2022/08/14 04:54:43;;;;;;;16.55;11.88;;;18.60;99.90;;;;;;5033276;28;20480;-82
2022/08/14 04:57:27;;;;;;;13.25;10.43;;;18.60;99.90;;;;;;5033213;28;20049;-82
2022/08/14 05:00:12;;;;;;;16.45;13.02;;;18.60;99.90;;;;;;5031702;28;20516;-82
2022/08/14 05:02:56;;;;;;;13.40;11.20;;;18.70;99.90;;;;;;5032677;28;20068;-82
2022/08/14 05:05:40;;;;;;;16.80;11.50;;;18.70;99.90;;;;;;5033195;28;20052;-82
2022/08/14 05:08:25;;;;;;;14.30;12.80;;;18.60;99.90;;;;;;5032950;28;20040;-82
2022/08/14 05:11:09;;;;;;;13.80;11.68;;;18.50;99.90;;;;;;5032571;28;20040;-82
2022/08/14 05:13:54;;;;;;;12.27;10.43;;;;;;;;;;5032576;28;20417;-82
2022/08/14 05:16:39;;;;;;;12.73;11.45;;;18.80;99.90;;;;;;5032955;28;20045;-82
2022/08/14 05:19:26;;;;;;;15.38;11.43;;;18.80;99.90;;;;;;5017823;28;20405;-82
2022/08/14 05:22:11;;;;;;;17.70;10.80;;;18.80;99.90;;;;;;5032028;28;20556;-82
2022/08/14 05:24:55;;;;;;;13.50;12.00;;;18.90;99.90;;;;;;5032466;28;20044;-81
2022/08/14 05:27:39;;;;;;;12.85;11.52;;;19.00;99.90;;;;;;5032958;28;20037;-82
2022/08/14 05:30:24;;;;;;;13.52;11.68;;;19.00;99.90;;;;;;5032642;28;20048;-82
2022/08/14 05:33:08;;;;;;;12.00;10.80;;;19.10;99.90;;;;;;5032323;28;20095;-82
2022/08/14 05:35:53;;;;;;;13.38;11.98;;;19.20;99.90;;;;;;5031793;28;20064;-82
2022/08/14 05:38:43;;;;;;;13.27;11.90;;;19.20;99.90;;;;;;5032575;28;20052;-82
2022/08/14 05:41:28;;;;;;;12.35;10.38;;;19.30;99.90;;;;;;5031637;28;20044;-82
2022/08/14 05:44:12;;;;;;;12.77;11.40;;;19.40;99.90;;;;;;5031274;28;20047;-82
2022/08/14 05:46:56;;;;;;;12.77;11.05;;;19.50;99.90;;;;;;5032447;28;20539;-82
2022/08/14 05:49:41;;;;;;;12.25;10.85;;;19.60;99.90;;;;;;5032546;28;20060;-82
2022/08/14 05:52:25;;;;;;;14.30;11.32;;;19.70;99.90;;;;;;5032437;28;20040;-82
2022/08/14 05:55:10;;;;;;;12.48;10.77;;;19.70;99.90;;;;;;5032141;28;20092;-82
2022/08/14 05:58:01;;;;;;;12.00;10.70;;;20.00;99.90;;;;;;5031166;28;20457;-82
2022/08/14 06:00:45;;;;;;;13.65;11.18;;;19.90;99.90;;;;;;5032384;28;20152;-82
2022/08/14 06:03:30;;;;;;;14.85;12.95;;;20.10;99.90;;;;;;5032503;28;20040;-82
2022/08/14 06:06:14;;;;;;;14.95;11.55;;;20.10;99.90;;;;;;5031968;28;20095;-82
2022/08/14 06:08:58;;;;;;;12.63;11.27;;;20.30;99.90;;;;;;5031322;28;20045;-82
2022/08/14 06:11:42;;;;;;;11.70;10.50;;;20.40;99.90;;;;;;5031305;28;20052;-82
2022/08/14 06:14:26;;;;;;;14.50;11.68;;;20.40;99.90;;;;;;5031407;28;20448;-82
2022/08/14 06:17:10;;;;;;;14.73;11.82;;;20.60;99.90;;;;;;5030824;28;20099;-82
2022/08/14 06:19:55;;;;;;;14.15;11.48;;;;;;;;;;5032018;28;20052;-82
2022/08/14 06:22:43;;;;;;;14.90;11.02;;;20.70;99.90;;;;;;5032098;28;20095;-82
2022/08/14 06:25:27;;;;;;;13.57;11.40;;;20.90;99.90;;;;;;5031998;28;20041;-81
2022/08/14 06:28:17;;;;;;;11.95;10.43;;;21.00;99.90;;;;;;5031827;28;20044;-82
2022/08/14 06:31:02;;;;;;;14.23;11.25;;;21.00;99.90;;;;;;5031012;28;20045;-82
2022/08/14 06:33:46;;;;;;;11.98;10.77;;;21.20;99.90;;;;;;5032471;28;20048;-81
2022/08/14 06:36:30;;;;;;;9.82;8.82;;;21.50;99.90;;;;;;5035863;28;20087;-80
2022/08/14 06:39:14;;;;;;;12.15;9.73;;;21.30;99.90;;;;;;5035282;28;20048;-82
2022/08/14 06:41:59;;;;;;;10.63;8.68;;;21.60;99.90;;;;;;5035749;28;20409;-81
2022/08/14 06:44:43;;;;;;;10.57;8.85;;;21.80;99.90;;;;;;5035723;28;20040;-81
2022/08/14 06:47:28;;;;;;;10.35;8.27;;;21.90;99.90;;;;;;5035183;28;20053;-81
2022/08/14 06:50:16;;;;;;;10.82;7.88;;;22.10;99.90;;;;;;5034240;28;20087;-81
2022/08/14 06:53:01;;;;;;;10.77;7.60;;;;;;;;;;5035489;28;20075;-81
2022/08/14 06:55:46;;;;;;;11.88;7.90;;;22.30;99.90;;;;;;5035649;28;20040;-82
2022/08/14 06:58:31;;;;;;;10.20;7.60;;;;;;;;;;5035066;28;20056;-82
2022/08/14 07:07:22;;;;;;;9.73;7.15;;;23.00;99.90;;;;;;5033968;28;20405;-81
2022/08/14 07:10:10;;;;;;;8.00;6.75;;;22.40;99.90;;;;;;5035213;28;20080;-81
2022/08/14 07:12:54;;;;;;;8.95;7.30;;;23.30;99.90;;;;;;5035173;28;20094;-81
2022/08/14 07:15:38;;;;;;;9.15;6.80;;;23.70;99.90;;;;;;5034188;28;20400;-81
2022/08/14 07:18:25;;;;;;;8.07;6.45;;;23.70;99.90;;;;;;5034645;28;20045;-80
2022/08/14 07:21:10;;;;;;;7.32;6.57;;;;;;;;;;5033963;28;20099;-81
2022/08/14 07:23:54;;;;;;;8.63;6.68;;;25.20;99.90;;;;;;5034941;28;20041;-80
2022/08/14 07:26:39;;;;;;;10.48;6.65;;;26.50;99.90;;;;;;5034778;28;20120;-83
2022/08/14 07:29:24;;;;;;;9.30;6.10;;;28.30;98.30;;;;;;5033303;28;20053;-82
2022/08/14 07:32:10;;;;;;;7.53;6.43;;;28.30;97.10;;;;;;5034713;28;20198;-81
2022/08/14 07:34:54;;;;;;;8.02;6.30;;;28.30;96.80;;;;;;5034617;28;20044;-82
2022/08/14 07:37:38;;;;;;;7.65;6.55;;;28.00;96.30;;;;;;5033747;28;20041;-81
2022/08/14 07:40:22;;;;;;;6.85;6.15;;;27.60;96.50;;;;;;5033337;28;20092;-81
2022/08/14 07:43:06;;;;;;;9.75;5.97;;;27.40;97.00;;;;;;5033587;28;20041;-81
2022/08/14 07:45:50;;;;;;;8.50;6.03;;;27.20;97.30;;;;;;5033803;28;20043;-82
2022/08/14 07:48:39;;;;;;;7.25;5.32;;;27.20;97.20;;;;;;5033897;28;20401;-81
2022/08/14 07:51:23;;;;;;;7.13;5.70;;;27.20;95.90;;;;;;5032749;28;20138;-82
2022/08/14 07:54:08;;;;;;;8.15;5.35;;;27.30;96.30;;;;;;5034135;28;20036;-82
2022/08/14 07:56:52;;;;;;;7.82;5.70;;;27.50;97.10;;;;;;5034205;28;20041;-82
2022/08/14 07:59:36;;;;;;;9.85;5.75;;;27.60;95.80;;;;;;5033681;28;20046;-82
2022/08/14 08:02:21;;;;;;;8.32;5.28;;;27.80;95.20;;;;;;5032952;28;20044;-81
2022/08/14 08:05:07;;;;;;;7.40;5.15;;;28.30;94.50;;;;;;5033217;28;20498;-82
2022/08/14 08:07:52;;;;;;;5.90;5.07;;;29.60;91.30;;;;;;5033136;28;20083;-82
2022/08/14 08:10:40;;;;;;;8.35;5.53;;;29.50;91.50;;;;;;5033755;28;20036;-81
2022/08/14 08:13:25;;;;;;;8.52;5.20;;;29.80;90.30;;;;;;5033569;28;20044;-80
2022/08/14 08:16:10;;;;;;;8.48;5.07;;;29.60;89.80;;;;;;5033962;28;20041;-81
2022/08/14 08:18:55;;;;;;;8.40;4.95;;;29.40;90.00;;;;;;5033910;28;20080;-81
2022/08/14 08:21:39;;;;;;;5.68;5.07;;;29.30;89.20;;;;;;5033410;28;20195;-81
2022/08/14 08:24:23;;;;;;;5.40;4.80;;;29.40;89.80;;;;;;5033421;28;20043;-81
2022/08/14 08:27:15;;;;;;;6.45;4.85;;;29.40;90.00;;;;;;5033783;28;20071;-80
2022/08/14 08:30:08;;;;;;;5.70;4.97;;;29.50;88.50;;;;;;5032704;28;20045;-81
2022/08/14 08:32:54;;;;;;;6.47;5.43;;;29.80;87.70;;;;;;5033813;28;20064;-81
2022/08/14 08:35:39;;;;;;;5.30;4.60;;;;;;;;;;5033220;28;20055;-83
2022/08/14 08:38:24;;;;;;;5.88;4.55;;;30.10;85.80;;;;;;5033056;28;20078;-81
2022/08/14 08:41:09;;;;;;;6.63;4.72;;;;;;;;;;5033284;28;20488;-81
2022/08/14 08:44:03;;;;;;;6.60;4.18;;;29.70;83.50;;;;;;5033390;28;20035;-83
2022/08/14 08:46:56;;;;;;;6.22;4.53;;;29.60;86.10;;;;;;5033016;28;20044;-81
2022/08/14 08:49:42;;;;;;;4.55;4.07;;;29.60;84.00;;;;;;5032595;28;20040;-83
2022/08/14 08:52:27;;;;;;;5.82;4.45;;;29.60;83.50;;;;;;5030959;28;20048;-82
2022/08/14 08:55:12;;;;;;;5.15;4.10;;;;;;;;;;5032208;28;20406;-82
2022/08/14 08:57:59;;;;;;;4.43;4.03;;;29.90;82.40;;;;;;5033012;28;20410;-81
2022/08/14 09:00:50;;;;;;;7.43;4.25;;;29.60;82.40;;;;;;5032696;28;20048;-82
2022/08/14 09:03:35;;;;;;;5.85;4.35;;;29.70;83.80;;;;;;5032628;28;20045;-81
2022/08/14 09:06:19;;;;;;;6.65;4.40;;;29.80;84.10;;;;;;5032850;28;20524;-82
2022/08/14 09:09:04;;;;;;;6.57;4.60;;;;;;;;;;5032959;28;20128;-83
2022/08/14 09:11:50;;;;;;;8.02;4.65;;;29.90;80.30;;;;;;5032453;28;20047;-82
2022/08/14 09:14:35;;;;;;;6.25;4.50;;;29.90;80.90;;;;;;5032559;28;20040;-81
2022/08/14 09:17:20;;;;;;;7.15;4.55;;;29.90;80.60;;;;;;5032949;28;20049;-81
2022/08/14 09:20:05;;;;;;;5.72;4.18;;;30.00;78.60;;;;;;5033113;28;20048;-82
2022/08/14 09:22:49;;;;;;;6.05;4.60;;;30.00;78.90;;;;;;5032731;28;20129;-82
2022/08/14 09:25:35;;;;;;;6.00;4.45;;;29.90;79.70;;;;;;5032299;28;20087;-82
2022/08/14 09:28:20;;;;;;;6.28;5.15;;;30.00;79.00;;;;;;5031589;28;20072;-82
2022/08/14 09:31:05;;;;;;;6.95;4.60;;;30.10;77.30;;;;;;5032436;28;20497;-81
2022/08/14 09:33:49;;;;;;;5.07;4.28;;;30.10;77.40;;;;;;5031513;28;20302;-82
2022/08/14 09:36:52;;;;;;;5.60;4.60;;;30.20;77.60;;;;;;5032185;28;20044;-82
2022/08/14 09:39:52;;;;;;;5.47;4.18;;;30.10;76.50;;;;;;5032052;28;20492;-81
2022/08/14 09:42:58;;;;;;;6.30;4.72;;;30.50;76.90;;;;;;5032077;28;20107;-80
2022/08/14 09:45:46;;;;;;;8.93;4.90;;;30.40;77.90;;;;;;5032030;28;20080;-82
2022/08/14 09:49:09;;;;;;;4.85;4.35;;;30.70;76.00;;;;;;5126424;27;20686;-81
2022/08/14 09:52:09;;;;;;;6.90;4.25;;;30.70;76.40;;;;;;5133100;27;20050;-80
2022/08/14 09:54:54;;;;;;;4.40;3.97;;;;;;;;;;5095582;28;20084;-81
2022/08/14 09:57:38;;;;;;;6.18;4.15;;;30.80;74.10;;;;;;5092583;28;20038;-81
2022/08/14 10:00:40;;;;;;;7.95;4.50;;;30.90;75.30;;;;;;5100843;28;20039;-82
2022/08/14 10:03:32;;;;;;;4.35;3.80;;;31.10;73.20;;;;;;5096019;28;20035;-81
2022/08/14 10:06:19;;;;;;;7.03;4.25;;;31.00;73.70;;;;;;5095117;28;20051;-81
2022/08/14 10:09:05;;;;;;;8.48;5.00;;;31.20;73.70;;;;;;5099158;28;20114;-82
2022/08/14 10:11:57;;;;;;;5.97;3.90;;;31.30;72.70;;;;;;5102192;28;20112;-83
2022/08/14 10:14:43;;;;;;;5.32;4.10;;;31.40;72.30;;;;;;5093214;28;20487;-82
2022/08/14 10:17:28;;;;;;;4.45;3.85;;;31.50;72.00;;;;;;5113274;28;20502;-81
2022/08/14 10:20:13;;;;;;;4.15;3.67;;;;;;;;;;5129229;27;20055;-81
2022/08/14 10:23:11;;;;;;;4.53;3.78;;;31.50;70.00;;;;;;5089676;28;20446;-81
2022/08/14 10:26:03;;;;;;;4.32;3.75;;;31.50;70.10;;;;;;5095999;28;20064;-81
2022/08/14 10:28:51;;;;;;;4.90;3.60;;;31.40;70.00;;;;;;5100372;28;20501;-81
2022/08/14 10:31:35;;;;;;;6.93;4.15;;;31.40;69.60;;;;;;5104704;28;20086;-81
2022/08/14 10:34:19;;;;;;;5.75;3.90;;;31.40;68.90;;;;;;5100528;28;20047;-81
2022/08/14 10:37:10;;;;;;;5.32;3.53;;;31.40;69.10;;;;;;5099741;28;20563;-81
2022/08/14 10:40:02;;;;;;;8.57;3.55;;;31.40;68.30;;;;;;5094590;28;20031;-81
2022/08/14 10:42:46;;;;;;;6.70;3.45;;;31.60;69.10;;;;;;5094752;28;20039;-81
2022/08/14 10:45:33;;;;;;;3.90;3.45;;;31.80;66.40;;;;;;5099159;28;20085;-81
2022/08/14 10:48:18;;;;;;;5.45;3.95;;;31.80;67.00;;;;;;5075184;28;20428;-81
2022/08/14 10:51:02;;;;;;;4.10;3.70;;;31.40;68.60;;;;;;5072392;28;20447;-81
2022/08/14 10:53:54;;;;;;;6.70;3.20;;;31.40;69.00;;;;;;5115907;27;20091;-82
2022/08/14 10:56:38;;;;;;;5.85;3.60;;;31.60;69.10;;;;;;5088301;28;20039;-82
2022/08/14 10:59:23;;;;;;;6.13;3.75;;;31.80;67.90;;;;;;5080997;28;20044;-81
2022/08/14 11:02:28;;;;;;;6.15;4.00;;;32.10;66.50;;;;;;5079118;28;20047;-82
2022/08/14 11:05:16;;;;;;;5.18;4.28;;;32.10;65.80;;;;;;5093517;28;20047;-81
2022/08/14 11:08:01;;;;;;;7.80;3.70;;;32.00;65.40;;;;;;5079419;28;20131;-82
2022/08/14 11:10:55;;;;;;;5.78;3.72;;;31.80;65.60;;;;;;5083555;28;20129;-82
2022/08/14 11:13:42;;;;;;;5.40;4.20;;;31.80;65.50;;;;;;5081374;28;20446;-80
2022/08/14 11:16:28;;;;;;;7.90;3.78;;;31.90;66.00;;;;;;5079562;28;20059;-82
2022/08/14 11:19:13;;;;;;;4.30;3.58;;;;;;;;;;5089577;28;20050;-81
2022/08/14 11:21:58;;;;;;;5.22;4.43;;;;;;;;;;5087722;28;20043;-82
2022/08/14 11:24:49;;;;;;;5.78;3.85;;;32.10;64.20;;;;;;5091203;28;20035;-82
2022/08/14 11:27:34;;;;;;;5.95;4.20;;;;;;;;;;5076369;28;20111;-82
2022/08/14 11:30:22;;;;;;;6.43;4.13;;;32.30;63.50;;;;;;5092659;28;20042;-82
2022/08/14 11:33:06;;;;;;;6.03;4.30;;;;;;;;;;5088804;28;20125;-82
2022/08/14 11:35:51;;;;;;;26.92;7.88;;;;;;;;;;5086314;28;20047;-82
2022/08/14 11:38:41;;;;;;;10.50;4.85;;;32.60;63.50;;;;;;5093124;28;20420;-83
2022/08/14 11:41:26;;;;;;;6.63;4.45;;;;;;;;;;5083389;28;20043;-82
2022/08/14 11:44:10;;;;;;;6.10;4.97;;;;;;;;;;5085293;28;20098;-82
2022/08/14 11:46:54;;;;;;;4.57;3.67;;;32.90;61.80;;;;;;5088202;28;20043;-82
2022/08/14 11:49:39;;;;;;;5.55;4.72;;;;;;;;;;5105430;28;20419;-83
2022/08/14 11:52:33;;;;;;;21.23;7.97;;;32.70;61.30;;;;;;5091765;28;20089;-83
2022/08/14 11:55:18;;;;;;;5.35;4.85;;;;;;;;;;5086501;28;20153;-83
2022/08/14 11:58:08;;;;;;;5.50;4.47;;;32.80;61.70;;;;;;5091982;28;20172;-83
2022/08/14 12:01:01;;;;;;;5.95;4.63;;;32.80;60.70;;;;;;5088865;28;20078;-83
2022/08/14 12:03:46;;;;;;;4.55;4.15;;;32.80;60.90;;;;;;5091158;28;20031;-83
2022/08/14 12:06:32;;;;;;;7.05;4.30;;;;;;;;;;5090481;28;20097;-83
2022/08/14 12:09:37;;;;;;;5.45;4.35;;;32.40;59.50;;;;;;5087511;28;20400;-83
2022/08/14 12:12:23;;;;;;;5.50;4.55;;;33.10;60.40;;;;;;5085450;28;20058;-83
2022/08/14 12:15:08;;;;;;;6.10;4.40;;;33.20;60.00;;;;;;5090291;28;20423;-83
2022/08/14 12:17:53;;;;;;;6.40;4.32;;;;;;;;;;5083608;28;20420;-83
2022/08/14 12:20:41;;;;;;;4.90;4.20;;;33.20;58.70;;;;;;5082892;28;20035;-83
2022/08/14 12:23:25;;;;;;;4.85;4.25;;;32.90;59.00;;;;;;5088610;28;20035;-82
2022/08/14 12:26:19;;;;;;;7.53;4.13;;;32.40;59.90;;;;;;5102129;28;20617;-82
2022/08/14 12:29:13;;;;;;;6.10;3.92;;;32.10;60.60;;;;;;5092198;28;20063;-82
2022/08/14 12:32:06;;;;;;;5.75;4.30;;;32.10;60.60;;;;;;5083242;28;20086;-83
2022/08/14 12:34:54;;;;;;;4.88;4.05;;;32.10;61.60;;;;;;5091039;28;20438;-82
2022/08/14 12:37:38;;;;;;;5.07;4.50;;;34.50;62.60;;;;;;5091038;28;20062;-82
2022/08/14 12:40:23;;;;;;;6.18;4.60;;;32.00;60.20;;;;;;5086651;28;20133;-83
2022/08/14 12:43:08;;;;;;;7.32;4.82;;;;;;;;;;5102917;28;20039;-80
2022/08/14 12:45:53;;;;;;;5.80;3.83;;;31.80;60.60;;;;;;5088847;28;20035;-80
2022/08/14 12:48:45;;;;;;;4.63;3.97;;;32.00;61.70;;;;;;5089367;28;20139;-80
2022/08/14 12:51:30;;;;;;;6.10;4.30;;;32.20;60.50;;;;;;5087207;28;20070;-80
2022/08/14 12:54:16;;;;;;;4.80;4.13;;;32.40;61.10;;;;;;5103022;28;20254;-80
2022/08/14 12:57:12;;;;;;;5.38;4.53;;;32.40;60.80;;;;;;5077495;28;20035;-81
2022/08/14 13:00:23;;;;;;;6.25;4.32;;;32.20;60.20;;;;;;5085261;28;20051;-80
2022/08/14 13:03:07;;;;;;;5.30;4.47;;;31.90;59.90;;;;;;5088401;28;20148;-80
2022/08/14 13:05:51;;;;;;;5.55;4.35;;;31.60;60.60;;;;;;5087960;28;20035;-80
2022/08/14 13:08:36;;;;;;;6.72;4.30;;;31.60;61.80;;;;;;5089765;28;20098;-80
2022/08/14 13:11:22;;;;;;;5.60;4.20;;;31.80;61.00;;;;;;5084356;28;20512;-80
2022/08/14 13:14:09;;;;;;;5.35;4.45;;;32.20;61.20;;;;;;5082322;28;20494;-80
2022/08/14 13:16:55;;;;;;;4.50;3.58;;;32.70;62.30;;;;;;5113290;27;20070;-81
2022/08/14 13:19:41;;;;;;;6.25;3.88;;;33.10;60.00;;;;;;5074744;28;20031;-80
2022/08/14 13:22:28;;;;;;;4.80;3.75;;;;;;;;;;5111707;27;20117;-80
2022/08/14 13:25:15;;;;;;;5.90;3.55;;;32.90;56.90;;;;;;5083414;28;20078;-80
2022/08/14 13:28:00;;;;;;;4.30;3.88;;;;;;;;;;5080002;28;20073;-80
2022/08/14 13:30:45;;;;;;;5.80;3.45;;;32.90;57.10;;;;;;5079810;28;20077;-81
2022/08/14 13:33:30;;;;;;;4.80;4.28;;;33.00;58.50;;;;;;5083672;28;20071;-80
2022/08/14 13:36:15;;;;;;;6.57;4.20;;;33.20;57.00;;;;;;5081121;28;20031;-81
2022/08/14 13:39:00;;;;;;;8.50;3.90;;;;;;;;;;5087323;28;20427;-81
2022/08/14 13:41:46;;;;;;;4.88;3.70;;;33.00;55.60;;;;;;5091424;28;20116;-81
2022/08/14 13:44:33;;;;;;;4.95;4.03;;;33.00;56.90;;;;;;5091036;28;20046;-82
2022/08/14 13:47:18;;;;;;;5.63;4.35;;;33.20;56.70;;;;;;5083426;28;20059;-80
2022/08/14 13:50:07;;;;;;;5.03;4.20;;;33.40;57.50;;;;;;5086402;28;20066;-81
2022/08/14 13:52:52;;;;;;;6.70;4.50;;;33.60;55.90;;;;;;5091751;28;20407;-81
2022/08/14 13:55:37;;;;;;;6.05;4.60;;;33.40;55.50;;;;;;5104609;28;20039;-80
2022/08/14 13:58:22;;;;;;;6.75;4.30;;;;;;;;;;5070719;28;20094;-80
2022/08/14 14:01:07;;;;;;;5.38;4.88;;;;;;;;;;5084755;28;20086;-80
2022/08/14 14:03:54;;;;;;;4.75;4.00;;;32.50;56.40;;;;;;5099726;28;20545;-81
2022/08/14 14:06:39;;;;;;;7.10;4.40;;;32.40;56.90;;;;;;5085463;28;20545;-80
2022/08/14 14:09:27;;;;;;;5.60;4.85;;;31.80;56.60;;;;;;5071697;28;20051;-81
2022/08/14 14:12:13;;;;;;;8.23;4.90;;;31.50;57.40;;;;;;5060519;28;20044;-81
2022/08/14 14:14:59;;;;;;;6.47;4.32;;;31.60;58.40;;;;;;5072342;28;20035;-81
2022/08/14 14:17:46;;;;;;;8.30;4.97;;;31.60;59.00;;;;;;5072157;28;20123;-81
2022/08/14 14:20:31;;;;;;;9.95;4.70;;;31.60;58.30;;;;;;5078313;28;20142;-82
2022/08/14 14:23:16;;;;;;;5.75;4.22;;;31.70;59.50;;;;;;5105259;28;20494;-82
2022/08/14 14:26:02;;;;;;;6.50;4.85;;;31.80;58.60;;;;;;5090080;28;20096;-81
2022/08/14 14:28:50;;;;;;;6.32;4.85;;;31.80;59.20;;;;;;5087789;28;20121;-82
2022/08/14 14:31:35;;;;;;;5.82;4.60;;;31.90;58.80;;;;;;5085450;28;20107;-81
2022/08/14 14:34:24;;;;;;;6.90;4.72;;;31.80;58.50;;;;;;5090277;28;20551;-81
2022/08/14 14:37:14;;;;;;;8.23;5.22;;;31.80;59.10;;;;;;5094828;28;20541;-81
2022/08/14 14:39:58;;;;;;;5.35;4.78;;;31.60;59.20;;;;;;5095001;28;20035;-81
2022/08/14 14:42:50;;;;;;;10.45;5.45;;;31.70;59.10;;;;;;5093876;28;20074;-81
2022/08/14 14:45:36;;;;;;;6.38;4.82;;;31.90;58.70;;;;;;5093752;28;20031;-82